sensor_id;sensor_type;location;lat;lon;timestamp;temperature;humidity
56436;DHT22;42335;44.872;20.658;2024-02-23T00:00:51;256.50;2252.80
56436;DHT22;42335;44.872;20.658;2024-02-23T00:03:17;256.50;2252.80
56436;DHT22;42335;44.872;20.658;2024-02-23T00:05:42;256.50;2252.80
56436;DHT22;42335;44.872;20.658;2024-02-23T00:08:08;256.50;2252.80
56436;DHT22;42335;44.872;20.658;2024-02-23T00:10:37;256.40;2252.80
56436;DHT22;42335;44.872;20.658;2024-02-23T00:13:03;256.50;2252.80
56436;DHT22;42335;44.872;20.658;2024-02-23T00:15:29;256.40;2252.80
56436;DHT22;42335;44.872;20.658;2024-02-23T00:17:55;256.50;2252.80
56436;DHT22;42335;44.872;20.658;2024-02-23T00:20:21;256.50;2252.80
56436;DHT22;42335;44.872;20.658;2024-02-23T00:22:48;256.50;2252.80
56436;DHT22;42335;44.872;20.658;2024-02-23T00:25:13;256.50;2252.80
56436;DHT22;42335;44.872;20.658;2024-02-23T00:27:39;256.50;2252.80
56436;DHT22;42335;44.872;20.658;2024-02-23T00:30:07;256.50;2252.80
56436;DHT22;42335;44.872;20.658;2024-02-23T00:32:33;256.50;2252.80
56436;DHT22;42335;44.872;20.658;2024-02-23T00:34:59;256.50;2252.80
56436;DHT22;42335;44.872;20.658;2024-02-23T00:37:24;256.50;2252.80
56436;DHT22;42335;44.872;20.658;2024-02-23T00:39:50;256.60;2252.80
56436;DHT22;42335;44.872;20.658;2024-02-23T00:42:16;256.60;2252.80
56436;DHT22;42335;44.872;20.658;2024-02-23T00:44:42;256.60;2252.80
56436;DHT22;42335;44.872;20.658;2024-02-23T00:47:07;256.60;2252.80
56436;DHT22;42335;44.872;20.658;2024-02-23T00:49:33;256.70;2252.80
56436;DHT22;42335;44.872;20.658;2024-02-23T00:51:59;256.60;2252.80
56436;DHT22;42335;44.872;20.658;2024-02-23T00:54:24;256.50;2252.80
56436;DHT22;42335;44.872;20.658;2024-02-23T00:56:50;256.60;2252.80
56436;DHT22;42335;44.872;20.658;2024-02-23T00:59:16;256.60;2252.80
56436;DHT22;42335;44.872;20.658;2024-02-23T01:01:42;256.60;2252.80
56436;DHT22;42335;44.872;20.658;2024-02-23T01:04:07;256.60;2252.80
56436;DHT22;42335;44.872;20.658;2024-02-23T01:06:33;256.60;2252.80
56436;DHT22;42335;44.872;20.658;2024-02-23T01:08:59;256.60;2252.80
56436;DHT22;42335;44.872;20.658;2024-02-23T01:11:25;256.60;2252.80
56436;DHT22;42335;44.872;20.658;2024-02-23T01:13:50;256.50;2252.80
56436;DHT22;42335;44.872;20.658;2024-02-23T01:16:16;256.50;2252.80
56436;DHT22;42335;44.872;20.658;2024-02-23T01:18:42;256.50;2252.80
56436;DHT22;42335;44.872;20.658;2024-02-23T01:21:08;256.40;2252.80
56436;DHT22;42335;44.872;20.658;2024-02-23T01:23:34;256.40;2252.80
56436;DHT22;42335;44.872;20.658;2024-02-23T01:25:59;256.40;2252.80
56436;DHT22;42335;44.872;20.658;2024-02-23T01:28:25;256.40;2252.80
56436;DHT22;42335;44.872;20.658;2024-02-23T01:30:51;256.40;2252.80
56436;DHT22;42335;44.872;20.658;2024-02-23T01:33:17;256.50;2252.80
56436;DHT22;42335;44.872;20.658;2024-02-23T01:35:43;256.50;2252.80
56436;DHT22;42335;44.872;20.658;2024-02-23T01:38:08;256.50;2252.80
56436;DHT22;42335;44.872;20.658;2024-02-23T01:40:34;256.50;2252.80
56436;DHT22;42335;44.872;20.658;2024-02-23T01:43:06;256.50;2252.80
56436;DHT22;42335;44.872;20.658;2024-02-23T01:45:32;256.50;2252.80
56436;DHT22;42335;44.872;20.658;2024-02-23T01:47:59;256.50;2252.80
56436;DHT22;42335;44.872;20.658;2024-02-23T01:50:27;256.50;2252.80
56436;DHT22;42335;44.872;20.658;2024-02-23T01:52:53;256.50;2252.80
56436;DHT22;42335;44.872;20.658;2024-02-23T01:55:22;256.60;2252.80
56436;DHT22;42335;44.872;20.658;2024-02-23T01:57:48;256.60;2252.80
56436;DHT22;42335;44.872;20.658;2024-02-23T02:00:17;256.50;2252.80
56436;DHT22;42335;44.872;20.658;2024-02-23T02:02:43;256.50;2252.80
56436;DHT22;42335;44.872;20.658;2024-02-23T02:05:10;256.50;2252.80
56436;DHT22;42335;44.872;20.658;2024-02-23T02:07:36;256.50;2252.80
56436;DHT22;42335;44.872;20.658;2024-02-23T02:10:02;256.50;2252.80
56436;DHT22;42335;44.872;20.658;2024-02-23T02:12:29;256.50;2252.80
56436;DHT22;42335;44.872;20.658;2024-02-23T02:14:55;256.50;2252.80
56436;DHT22;42335;44.872;20.658;2024-02-23T02:17:21;256.30;2252.80
56436;DHT22;42335;44.872;20.658;2024-02-23T02:19:50;256.40;2252.80
56436;DHT22;42335;44.872;20.658;2024-02-23T02:22:16;256.40;2252.80
56436;DHT22;42335;44.872;20.658;2024-02-23T02:24:41;256.50;2252.80
56436;DHT22;42335;44.872;20.658;2024-02-23T02:27:09;256.50;2252.80
56436;DHT22;42335;44.872;20.658;2024-02-23T02:29:35;256.50;2252.80
56436;DHT22;42335;44.872;20.658;2024-02-23T02:32:01;256.50;2252.80
56436;DHT22;42335;44.872;20.658;2024-02-23T02:34:28;256.50;2252.80
56436;DHT22;42335;44.872;20.658;2024-02-23T02:36:55;256.50;2252.80
56436;DHT22;42335;44.872;20.658;2024-02-23T02:39:20;256.50;2252.80
56436;DHT22;42335;44.872;20.658;2024-02-23T02:41:48;256.50;2252.80
56436;DHT22;42335;44.872;20.658;2024-02-23T02:44:14;256.40;2252.80
56436;DHT22;42335;44.872;20.658;2024-02-23T02:46:41;256.50;2252.80
56436;DHT22;42335;44.872;20.658;2024-02-23T02:49:06;256.50;2252.80
56436;DHT22;42335;44.872;20.658;2024-02-23T02:51:32;256.40;2252.80
56436;DHT22;42335;44.872;20.658;2024-02-23T02:53:58;256.40;2252.80
56436;DHT22;42335;44.872;20.658;2024-02-23T02:56:24;256.50;2252.80
56436;DHT22;42335;44.872;20.658;2024-02-23T02:58:50;256.10;2252.80
56436;DHT22;42335;44.872;20.658;2024-02-23T03:01:15;256.50;2252.80
56436;DHT22;42335;44.872;20.658;2024-02-23T03:03:41;256.50;2252.80
56436;DHT22;42335;44.872;20.658;2024-02-23T03:06:07;256.50;2252.80
56436;DHT22;42335;44.872;20.658;2024-02-23T03:08:33;256.50;2252.80
56436;DHT22;42335;44.872;20.658;2024-02-23T03:10:59;256.50;2252.80
56436;DHT22;42335;44.872;20.658;2024-02-23T03:13:25;256.60;2252.80
56436;DHT22;42335;44.872;20.658;2024-02-23T03:15:51;256.60;2252.80
56436;DHT22;42335;44.872;20.658;2024-02-23T03:18:16;256.60;2252.80
56436;DHT22;42335;44.872;20.658;2024-02-23T03:20:43;256.60;2252.80
56436;DHT22;42335;44.872;20.658;2024-02-23T03:23:09;256.70;2252.80
56436;DHT22;42335;44.872;20.658;2024-02-23T03:25:35;256.70;2252.80
56436;DHT22;42335;44.872;20.658;2024-02-23T03:28:01;256.80;2252.80
56436;DHT22;42335;44.872;20.658;2024-02-23T03:30:27;256.80;2252.80
56436;DHT22;42335;44.872;20.658;2024-02-23T03:32:52;256.80;2252.80
56436;DHT22;42335;44.872;20.658;2024-02-23T03:35:18;256.80;2227.20
56436;DHT22;42335;44.872;20.658;2024-02-23T03:37:44;256.80;2227.20
56436;DHT22;42335;44.872;20.658;2024-02-23T03:40:10;256.80;2201.60
56436;DHT22;42335;44.872;20.658;2024-02-23T03:42:36;256.80;2201.60
56436;DHT22;42335;44.872;20.658;2024-02-23T03:45:02;256.80;2201.60
56436;DHT22;42335;44.872;20.658;2024-02-23T03:47:28;256.80;2227.20
56436;DHT22;42335;44.872;20.658;2024-02-23T03:49:54;256.80;2227.20
56436;DHT22;42335;44.872;20.658;2024-02-23T03:52:20;256.70;2252.80
56436;DHT22;42335;44.872;20.658;2024-02-23T03:54:45;256.70;2252.80
56436;DHT22;42335;44.872;20.658;2024-02-23T03:57:11;256.70;2252.80
56436;DHT22;42335;44.872;20.658;2024-02-23T03:59:37;256.70;2252.80
56436;DHT22;42335;44.872;20.658;2024-02-23T04:02:04;256.70;2252.80
56436;DHT22;42335;44.872;20.658;2024-02-23T04:04:29;256.70;2227.20
56436;DHT22;42335;44.872;20.658;2024-02-23T04:06:55;256.70;2201.60
56436;DHT22;42335;44.872;20.658;2024-02-23T04:09:21;256.70;2201.60
56436;DHT22;42335;44.872;20.658;2024-02-23T04:11:49;256.80;2176.00
56436;DHT22;42335;44.872;20.658;2024-02-23T04:14:15;256.80;2201.60
56436;DHT22;42335;44.872;20.658;2024-02-23T04:16:41;256.80;2201.60
56436;DHT22;42335;44.872;20.658;2024-02-23T04:19:07;256.80;2176.00
56436;DHT22;42335;44.872;20.658;2024-02-23T04:21:32;256.80;2176.00
56436;DHT22;42335;44.872;20.658;2024-02-23T04:23:58;281.60;2201.60
56436;DHT22;42335;44.872;20.658;2024-02-23T04:26:24;256.80;2176.00
56436;DHT22;42335;44.872;20.658;2024-02-23T04:28:49;256.80;2176.00
56436;DHT22;42335;44.872;20.658;2024-02-23T04:31:15;256.80;2201.60
56436;DHT22;42335;44.872;20.658;2024-02-23T04:33:41;256.80;2201.60
56436;DHT22;42335;44.872;20.658;2024-02-23T04:36:07;256.80;2201.60
56436;DHT22;42335;44.872;20.658;2024-02-23T04:38:33;256.80;2201.60
56436;DHT22;42335;44.872;20.658;2024-02-23T04:41:03;256.80;2201.60
56436;DHT22;42335;44.872;20.658;2024-02-23T04:43:32;256.80;2201.60
56436;DHT22;42335;44.872;20.658;2024-02-23T04:45:58;256.80;2227.20
56436;DHT22;42335;44.872;20.658;2024-02-23T04:48:24;256.80;2252.80
56436;DHT22;42335;44.872;20.658;2024-02-23T04:50:50;256.70;2252.80
56436;DHT22;42335;44.872;20.658;2024-02-23T04:53:15;256.70;2252.80
56436;DHT22;42335;44.872;20.658;2024-02-23T04:55:41;256.60;2252.80
56436;DHT22;42335;44.872;20.658;2024-02-23T04:58:07;256.50;2252.80
56436;DHT22;42335;44.872;20.658;2024-02-23T05:00:33;256.40;2252.80
56436;DHT22;42335;44.872;20.658;2024-02-23T05:03:02;256.40;2252.80
56436;DHT22;42335;44.872;20.658;2024-02-23T05:05:32;256.40;2252.80
56436;DHT22;42335;44.872;20.658;2024-02-23T05:07:58;256.40;2252.80
56436;DHT22;42335;44.872;20.658;2024-02-23T05:10:24;256.40;2252.80
56436;DHT22;42335;44.872;20.658;2024-02-23T05:12:50;256.40;2252.80
56436;DHT22;42335;44.872;20.658;2024-02-23T05:15:16;256.50;2252.80
56436;DHT22;42335;44.872;20.658;2024-02-23T05:17:42;256.50;2252.80
56436;DHT22;42335;44.872;20.658;2024-02-23T05:20:08;256.50;2252.80
56436;DHT22;42335;44.872;20.658;2024-02-23T05:22:39;256.40;2252.80
56436;DHT22;42335;44.872;20.658;2024-02-23T05:25:05;256.50;2252.80
56436;DHT22;42335;44.872;20.658;2024-02-23T05:27:31;256.40;2252.80
56436;DHT22;42335;44.872;20.658;2024-02-23T05:29:57;256.50;2252.80
56436;DHT22;42335;44.872;20.658;2024-02-23T05:32:23;256.50;2252.80
56436;DHT22;42335;44.872;20.658;2024-02-23T05:34:49;256.50;2252.80
56436;DHT22;42335;44.872;20.658;2024-02-23T05:37:17;256.50;2252.80
56436;DHT22;42335;44.872;20.658;2024-02-23T05:39:43;256.50;2252.80
56436;DHT22;42335;44.872;20.658;2024-02-23T05:42:10;256.50;2252.80
56436;DHT22;42335;44.872;20.658;2024-02-23T05:44:36;256.50;2252.80
56436;DHT22;42335;44.872;20.658;2024-02-23T05:47:02;256.50;2252.80
56436;DHT22;42335;44.872;20.658;2024-02-23T05:49:28;256.50;2252.80
56436;DHT22;42335;44.872;20.658;2024-02-23T05:51:53;256.50;2252.80
56436;DHT22;42335;44.872;20.658;2024-02-23T05:54:20;256.60;2252.80
56436;DHT22;42335;44.872;20.658;2024-02-23T05:56:46;256.60;2252.80
56436;DHT22;42335;44.872;20.658;2024-02-23T05:59:12;256.60;2252.80
56436;DHT22;42335;44.872;20.658;2024-02-23T06:01:38;256.60;2252.80
56436;DHT22;42335;44.872;20.658;2024-02-23T06:04:03;256.60;2252.80
56436;DHT22;42335;44.872;20.658;2024-02-23T06:06:29;256.60;2252.80
56436;DHT22;42335;44.872;20.658;2024-02-23T06:08:55;256.60;2252.80
56436;DHT22;42335;44.872;20.658;2024-02-23T06:11:21;256.70;2252.80
56436;DHT22;42335;44.872;20.658;2024-02-23T06:13:47;256.70;2252.80
56436;DHT22;42335;44.872;20.658;2024-02-23T06:16:13;256.70;2252.80
56436;DHT22;42335;44.872;20.658;2024-02-23T06:18:39;256.80;2252.80
56436;DHT22;42335;44.872;20.658;2024-02-23T06:21:17;256.80;2252.80
56436;DHT22;42335;44.872;20.658;2024-02-23T06:23:43;256.90;2252.80
56436;DHT22;42335;44.872;20.658;2024-02-23T06:26:09;256.80;2252.80
56436;DHT22;42335;44.872;20.658;2024-02-23T06:28:35;256.90;2252.80
56436;DHT22;42335;44.872;20.658;2024-02-23T06:31:03;256.80;2252.80
56436;DHT22;42335;44.872;20.658;2024-02-23T06:33:30;256.80;2252.80
56436;DHT22;42335;44.872;20.658;2024-02-23T06:35:56;256.70;2252.80
56436;DHT22;42335;44.872;20.658;2024-02-23T06:38:22;256.80;2252.80
56436;DHT22;42335;44.872;20.658;2024-02-23T06:40:47;256.80;2252.80
56436;DHT22;42335;44.872;20.658;2024-02-23T06:43:13;256.80;2252.80
56436;DHT22;42335;44.872;20.658;2024-02-23T06:45:39;256.80;2252.80
56436;DHT22;42335;44.872;20.658;2024-02-23T06:48:05;256.90;2252.80
56436;DHT22;42335;44.872;20.658;2024-02-23T06:50:31;256.90;2252.80
56436;DHT22;42335;44.872;20.658;2024-02-23T06:52:56;256.90;2252.80
56436;DHT22;42335;44.872;20.658;2024-02-23T06:55:22;256.90;2252.80
56436;DHT22;42335;44.872;20.658;2024-02-23T06:57:48;256.90;2252.80
56436;DHT22;42335;44.872;20.658;2024-02-23T07:00:14;281.60;2278.40
56436;DHT22;42335;44.872;20.658;2024-02-23T07:02:40;281.60;2278.40
56436;DHT22;42335;44.872;20.658;2024-02-23T07:05:06;281.60;2278.40
56436;DHT22;42335;44.872;20.658;2024-02-23T07:07:32;256.90;2252.80
56436;DHT22;42335;44.872;20.658;2024-02-23T07:10:02;256.90;2252.80
56436;DHT22;42335;44.872;20.658;2024-02-23T07:12:27;281.60;2278.40
56436;DHT22;42335;44.872;20.658;2024-02-23T07:14:55;281.70;2278.40
56436;DHT22;42335;44.872;20.658;2024-02-23T07:17:21;281.80;2278.40
56436;DHT22;42335;44.872;20.658;2024-02-23T07:19:47;281.80;2278.40
56436;DHT22;42335;44.872;20.658;2024-02-23T07:22:13;281.90;2252.80
56436;DHT22;42335;44.872;20.658;2024-02-23T07:24:42;282.00;2252.80
56436;DHT22;42335;44.872;20.658;2024-02-23T07:27:08;282.10;2252.80
56436;DHT22;42335;44.872;20.658;2024-02-23T07:29:34;282.10;2278.40
56436;DHT22;42335;44.872;20.658;2024-02-23T07:31:59;282.20;2278.40
56436;DHT22;42335;44.872;20.658;2024-02-23T07:34:25;282.20;2278.40
56436;DHT22;42335;44.872;20.658;2024-02-23T07:36:54;282.20;2278.40
56436;DHT22;42335;44.872;20.658;2024-02-23T07:39:21;282.20;2278.40
56436;DHT22;42335;44.872;20.658;2024-02-23T07:41:47;282.20;2278.40
56436;DHT22;42335;44.872;20.658;2024-02-23T07:44:13;282.20;2278.40
56436;DHT22;42335;44.872;20.658;2024-02-23T07:46:39;282.40;2278.40
56436;DHT22;42335;44.872;20.658;2024-02-23T07:49:05;282.50;2278.40
56436;DHT22;42335;44.872;20.658;2024-02-23T07:51:35;307.30;2304.00
56436;DHT22;42335;44.872;20.658;2024-02-23T07:54:01;307.30;2304.00
56436;DHT22;42335;44.872;20.658;2024-02-23T07:56:27;307.50;2304.00
56436;DHT22;42335;44.872;20.658;2024-02-23T07:58:54;307.60;2278.40
56436;DHT22;42335;44.872;20.658;2024-02-23T08:01:19;307.70;2252.80
56436;DHT22;42335;44.872;20.658;2024-02-23T08:03:45;307.80;2227.20
56436;DHT22;42335;44.872;20.658;2024-02-23T08:06:11;308.00;2201.60
56436;DHT22;42335;44.872;20.658;2024-02-23T08:08:38;308.10;2176.00
56436;DHT22;42335;44.872;20.658;2024-02-23T08:11:04;332.90;2176.00
56436;DHT22;42335;44.872;20.658;2024-02-23T08:13:30;333.00;2176.00
56436;DHT22;42335;44.872;20.658;2024-02-23T08:15:57;333.10;2176.00
56436;DHT22;42335;44.872;20.658;2024-02-23T08:18:23;333.30;2124.80
56436;DHT22;42335;44.872;20.658;2024-02-23T08:20:49;333.50;2124.80
56436;DHT22;42335;44.872;20.658;2024-02-23T08:23:15;333.60;2124.80
56436;DHT22;42335;44.872;20.658;2024-02-23T08:25:40;333.60;2124.80
56436;DHT22;42335;44.872;20.658;2024-02-23T08:28:06;333.70;2124.80
56436;DHT22;42335;44.872;20.658;2024-02-23T08:30:32;333.60;2150.40
56436;DHT22;42335;44.872;20.658;2024-02-23T08:32:59;333.60;2099.20
56436;DHT22;42335;44.872;20.658;2024-02-23T08:35:25;333.70;2073.60
56436;DHT22;42335;44.872;20.658;2024-02-23T08:37:51;333.70;2073.60
56436;DHT22;42335;44.872;20.658;2024-02-23T08:40:17;333.70;2022.40
56436;DHT22;42335;44.872;20.658;2024-02-23T08:42:43;358.40;2022.40
56436;DHT22;42335;44.872;20.658;2024-02-23T08:45:09;358.70;2022.40
56436;DHT22;42335;44.872;20.658;2024-02-23T08:47:38;358.70;1996.80
56436;DHT22;42335;44.872;20.658;2024-02-23T08:50:04;358.80;1971.20
56436;DHT22;42335;44.872;20.658;2024-02-23T08:52:30;358.90;1945.60
56436;DHT22;42335;44.872;20.658;2024-02-23T08:54:55;358.90;1945.60
56436;DHT22;42335;44.872;20.658;2024-02-23T08:57:21;358.90;1945.60
56436;DHT22;42335;44.872;20.658;2024-02-23T08:59:49;358.80;1945.60
56436;DHT22;42335;44.872;20.658;2024-02-23T09:02:15;358.90;1996.80
56436;DHT22;42335;44.872;20.658;2024-02-23T09:04:41;358.90;1996.80
56436;DHT22;42335;44.872;20.658;2024-02-23T09:07:06;358.90;1996.80
56436;DHT22;42335;44.872;20.658;2024-02-23T09:09:32;358.80;2022.40
56436;DHT22;42335;44.872;20.658;2024-02-23T09:11:58;358.90;2022.40
56436;DHT22;42335;44.872;20.658;2024-02-23T09:14:24;359.10;1996.80
56436;DHT22;42335;44.872;20.658;2024-02-23T09:16:51;359.30;1996.80
56436;DHT22;42335;44.872;20.658;2024-02-23T09:19:17;384.20;1971.20
56436;DHT22;42335;44.872;20.658;2024-02-23T09:21:44;384.70;1945.60
56436;DHT22;42335;44.872;20.658;2024-02-23T09:24:10;410.00;1894.40
56436;DHT22;42335;44.872;20.658;2024-02-23T09:26:35;435.20;1843.20
56436;DHT22;42335;44.872;20.658;2024-02-23T09:29:01;461.40;1715.20
56436;DHT22;42335;44.872;20.658;2024-02-23T09:31:27;487.20;1587.20
56436;DHT22;42335;44.872;20.658;2024-02-23T09:33:56;487.10;1536.00
56436;DHT22;42335;44.872;20.658;2024-02-23T09:36:22;461.60;1612.80
56436;DHT22;42335;44.872;20.658;2024-02-23T09:38:48;461.20;1638.40
56436;DHT22;42335;44.872;20.658;2024-02-23T09:41:24;436.00;1638.40
56436;DHT22;42335;44.872;20.658;2024-02-23T09:43:50;435.70;1638.40
56436;DHT22;42335;44.872;20.658;2024-02-23T09:46:17;435.60;1664.00
56436;DHT22;42335;44.872;20.658;2024-02-23T09:48:43;435.20;1689.60
56436;DHT22;42335;44.872;20.658;2024-02-23T09:51:10;410.50;1715.20
56436;DHT22;42335;44.872;20.658;2024-02-23T09:53:38;410.30;1740.80
56436;DHT22;42335;44.872;20.658;2024-02-23T09:56:05;410.00;1740.80
56436;DHT22;42335;44.872;20.658;2024-02-23T09:58:32;410.00;1766.40
56436;DHT22;42335;44.872;20.658;2024-02-23T10:00:59;409.70;1792.00
56436;DHT22;42335;44.872;20.658;2024-02-23T10:03:27;410.00;1817.60
56436;DHT22;42335;44.872;20.658;2024-02-23T10:05:58;384.90;1792.00
56436;DHT22;42335;44.872;20.658;2024-02-23T10:08:29;384.90;1792.00
56436;DHT22;42335;44.872;20.658;2024-02-23T10:10:55;384.80;1792.00
56436;DHT22;42335;44.872;20.658;2024-02-23T10:13:24;384.90;1792.00
56436;DHT22;42335;44.872;20.658;2024-02-23T10:15:51;384.90;1766.40
56436;DHT22;42335;44.872;20.658;2024-02-23T10:18:17;409.60;1792.00
56436;DHT22;42335;44.872;20.658;2024-02-23T10:20:43;409.80;1792.00
56436;DHT22;42335;44.872;20.658;2024-02-23T10:23:10;409.90;1792.00
56436;DHT22;42335;44.872;20.658;2024-02-23T10:25:36;409.90;1766.40
56436;DHT22;42335;44.872;20.658;2024-02-23T10:28:06;409.90;1792.00
56436;DHT22;42335;44.872;20.658;2024-02-23T10:30:33;409.90;1766.40
56436;DHT22;42335;44.872;20.658;2024-02-23T10:32:59;410.10;1766.40
56436;DHT22;42335;44.872;20.658;2024-02-23T10:35:26;410.10;1740.80
56436;DHT22;42335;44.872;20.658;2024-02-23T10:37:56;410.20;1740.80
56436;DHT22;42335;44.872;20.658;2024-02-23T10:40:22;410.30;1740.80
56436;DHT22;42335;44.872;20.658;2024-02-23T10:42:56;410.30;1740.80
56436;DHT22;42335;44.872;20.658;2024-02-23T10:45:22;410.20;1715.20
56436;DHT22;42335;44.872;20.658;2024-02-23T10:47:48;410.20;1715.20
56436;DHT22;42335;44.872;20.658;2024-02-23T10:50:17;410.30;1715.20
56436;DHT22;42335;44.872;20.658;2024-02-23T10:52:45;435.20;1689.60
56436;DHT22;42335;44.872;20.658;2024-02-23T10:55:11;435.40;1664.00
56436;DHT22;42335;44.872;20.658;2024-02-23T10:57:37;435.80;1638.40
56436;DHT22;42335;44.872;20.658;2024-02-23T11:00:05;460.80;1638.40
56436;DHT22;42335;44.872;20.658;2024-02-23T11:02:45;436.00;1612.80
56436;DHT22;42335;44.872;20.658;2024-02-23T11:05:13;435.80;1612.80
56436;DHT22;42335;44.872;20.658;2024-02-23T11:07:40;435.80;1612.80
56436;DHT22;42335;44.872;20.658;2024-02-23T11:10:06;435.90;1612.80
56436;DHT22;42335;44.872;20.658;2024-02-23T11:12:34;435.90;1612.80
56436;DHT22;42335;44.872;20.658;2024-02-23T11:15:01;435.90;1612.80
56436;DHT22;42335;44.872;20.658;2024-02-23T11:17:31;436.10;1612.80
56436;DHT22;42335;44.872;20.658;2024-02-23T11:19:58;460.90;1612.80
56436;DHT22;42335;44.872;20.658;2024-02-23T11:22:30;461.30;1587.20
56436;DHT22;42335;44.872;20.658;2024-02-23T11:25:17;461.70;1536.00
56436;DHT22;42335;44.872;20.658;2024-02-23T11:27:43;487.30;1459.20
56436;DHT22;42335;44.872;20.658;2024-02-23T11:30:10;537.80;1408.00
56436;DHT22;42335;44.872;20.658;2024-02-23T11:32:41;563.70;1356.80
56436;DHT22;42335;44.872;20.658;2024-02-23T11:35:10;614.90;1203.20
56436;DHT22;42335;44.872;20.658;2024-02-23T11:38:08;614.70;1254.40
56436;DHT22;42335;44.872;20.658;2024-02-23T11:43:01;564.00;1254.40
56436;DHT22;42335;44.872;20.658;2024-02-23T11:45:31;563.30;1305.60
56436;DHT22;42335;44.872;20.658;2024-02-23T11:50:22;538.00;1331.20
56436;DHT22;42335;44.872;20.658;2024-02-23T11:52:48;512.90;1331.20
56436;DHT22;42335;44.872;20.658;2024-02-23T11:55:23;512.80;1356.80
56436;DHT22;42335;44.872;20.658;2024-02-23T11:57:50;512.30;1331.20
56436;DHT22;42335;44.872;20.658;2024-02-23T12:00:16;512.10;1356.80
56436;DHT22;42335;44.872;20.658;2024-02-23T12:02:43;512.30;1356.80
56436;DHT22;42335;44.872;20.658;2024-02-23T12:05:11;512.40;1356.80
56436;DHT22;42335;44.872;20.658;2024-02-23T12:07:37;512.70;1331.20
56436;DHT22;42335;44.872;20.658;2024-02-23T12:10:03;537.70;1305.60
56436;DHT22;42335;44.872;20.658;2024-02-23T12:12:29;537.70;1331.20
56436;DHT22;42335;44.872;20.658;2024-02-23T12:14:55;537.80;1305.60
56436;DHT22;42335;44.872;20.658;2024-02-23T12:17:21;537.80;1331.20
56436;DHT22;42335;44.872;20.658;2024-02-23T12:19:46;537.60;1331.20
56436;DHT22;42335;44.872;20.658;2024-02-23T12:22:12;537.60;1305.60
56436;DHT22;42335;44.872;20.658;2024-02-23T12:24:40;563.30;1280.00
56436;DHT22;42335;44.872;20.658;2024-02-23T12:27:07;588.90;1228.80
56436;DHT22;42335;44.872;20.658;2024-02-23T12:29:32;588.90;1203.20
56436;DHT22;42335;44.872;20.658;2024-02-23T12:32:05;588.90;1203.20
56436;DHT22;42335;44.872;20.658;2024-02-23T12:34:32;564.00;1228.80
56436;DHT22;42335;44.872;20.658;2024-02-23T12:36:57;563.70;1228.80
56436;DHT22;42335;44.872;20.658;2024-02-23T12:39:23;563.60;1254.40
56436;DHT22;42335;44.872;20.658;2024-02-23T12:41:49;563.30;1228.80
56436;DHT22;42335;44.872;20.658;2024-02-23T12:44:16;563.40;1203.20
56436;DHT22;42335;44.872;20.658;2024-02-23T12:46:42;563.50;1228.80
56436;DHT22;42335;44.872;20.658;2024-02-23T12:49:08;563.20;1228.80
56436;DHT22;42335;44.872;20.658;2024-02-23T12:51:34;538.50;1203.20
56436;DHT22;42335;44.872;20.658;2024-02-23T12:54:00;563.30;1228.80
56436;DHT22;42335;44.872;20.658;2024-02-23T12:56:26;563.30;1203.20
56436;DHT22;42335;44.872;20.658;2024-02-23T12:58:52;538.50;1203.20
56436;DHT22;42335;44.872;20.658;2024-02-23T13:01:19;538.40;1203.20
56436;DHT22;42335;44.872;20.658;2024-02-23T13:03:45;538.10;1228.80
56436;DHT22;42335;44.872;20.658;2024-02-23T13:06:11;537.90;1228.80
56436;DHT22;42335;44.872;20.658;2024-02-23T13:08:38;537.70;1228.80
56436;DHT22;42335;44.872;20.658;2024-02-23T13:11:06;537.70;1203.20
56436;DHT22;42335;44.872;20.658;2024-02-23T13:13:32;512.90;1203.20
56436;DHT22;42335;44.872;20.658;2024-02-23T13:15:58;512.70;1203.20
56436;DHT22;42335;44.872;20.658;2024-02-23T13:18:24;512.50;1203.20
56436;DHT22;42335;44.872;20.658;2024-02-23T13:20:50;512.70;1203.20
56436;DHT22;42335;44.872;20.658;2024-02-23T13:23:16;512.30;1177.60
56436;DHT22;42335;44.872;20.658;2024-02-23T13:25:43;512.20;1203.20
56436;DHT22;42335;44.872;20.658;2024-02-23T13:28:09;512.10;1203.20
56436;DHT22;42335;44.872;20.658;2024-02-23T13:30:36;512.00;1228.80
56436;DHT22;42335;44.872;20.658;2024-02-23T13:33:02;487.10;1228.80
56436;DHT22;42335;44.872;20.658;2024-02-23T13:35:28;487.00;1254.40
56436;DHT22;42335;44.872;20.658;2024-02-23T13:37:54;486.80;1280.00
56436;DHT22;42335;44.872;20.658;2024-02-23T13:40:20;486.60;1280.00
56436;DHT22;42335;44.872;20.658;2024-02-23T13:42:46;486.50;1280.00
56436;DHT22;42335;44.872;20.658;2024-02-23T13:45:15;486.40;1305.60
56436;DHT22;42335;44.872;20.658;2024-02-23T13:47:42;461.70;1305.60
56436;DHT22;42335;44.872;20.658;2024-02-23T13:50:10;461.50;1331.20
56436;DHT22;42335;44.872;20.658;2024-02-23T13:52:36;461.40;1331.20
56436;DHT22;42335;44.872;20.658;2024-02-23T13:55:02;461.30;1331.20
56436;DHT22;42335;44.872;20.658;2024-02-23T13:57:28;461.20;1331.20
56436;DHT22;42335;44.872;20.658;2024-02-23T13:59:54;461.20;1331.20
56436;DHT22;42335;44.872;20.658;2024-02-23T14:02:25;461.20;1356.80
56436;DHT22;42335;44.872;20.658;2024-02-23T14:04:52;461.20;1356.80
56436;DHT22;42335;44.872;20.658;2024-02-23T14:07:19;461.10;1356.80
56436;DHT22;42335;44.872;20.658;2024-02-23T14:09:44;461.10;1356.80
56436;DHT22;42335;44.872;20.658;2024-02-23T14:12:10;461.10;1356.80
56436;DHT22;42335;44.872;20.658;2024-02-23T14:14:36;461.10;1356.80
56436;DHT22;42335;44.872;20.658;2024-02-23T14:17:02;461.00;1382.40
56436;DHT22;42335;44.872;20.658;2024-02-23T14:19:28;461.00;1382.40
56436;DHT22;42335;44.872;20.658;2024-02-23T14:21:53;460.90;1382.40
56436;DHT22;42335;44.872;20.658;2024-02-23T14:24:19;460.90;1382.40
56436;DHT22;42335;44.872;20.658;2024-02-23T14:26:45;460.90;1382.40
56436;DHT22;42335;44.872;20.658;2024-02-23T14:29:10;461.00;1382.40
56436;DHT22;42335;44.872;20.658;2024-02-23T14:31:36;461.10;1382.40
56436;DHT22;42335;44.872;20.658;2024-02-23T14:34:02;461.20;1356.80
56436;DHT22;42335;44.872;20.658;2024-02-23T14:36:28;461.20;1356.80